Time;durP1;ratioP1;P1;durP2;ratioP2;P2;SDS_P1;SDS_P2;PMS_P1;PMS_P2;Temp;Humidity;BMP_temperature;BMP_pressure;BME280_temperature;BME280_humidity;BME280_pressure;Samples;Min_cycle;Max_cycle;Signal;HPM_P1;HPM_P2
2022/11/23 00:00:22;;;;;;;0.75;0.57;;;16.40;67.80;;;;;;5007777;28;20066;-18
2022/11/23 00:02:55;;;;;;;0.50;0.50;;;16.30;67.70;;;;;;5008465;28;20045;-27
2022/11/23 00:05:20;;;;;;;0.60;0.60;;;16.30;67.70;;;;;;4990542;28;20068;-18
2022/11/23 00:07:46;;;;;;;1.33;0.60;;;16.30;67.70;;;;;;4989654;28;20129;-18
2022/11/23 00:10:11;;;;;;;0.95;0.90;;;16.40;67.60;;;;;;4997897;28;20473;-18
2022/11/23 00:12:37;;;;;;;0.63;0.55;;;16.40;67.60;;;;;;5003265;28;20157;-19
2022/11/23 00:15:03;;;;;;;0.70;0.60;;;16.40;67.70;;;;;;5006645;28;20499;-18
2022/11/23 00:17:29;;;;;;;0.95;0.60;;;16.40;67.80;;;;;;5009960;28;20115;-19
2022/11/23 00:19:55;;;;;;;0.88;0.63;;;16.40;67.80;;;;;;5002242;28;20045;-18
2022/11/23 00:22:20;;;;;;;0.70;0.70;;;16.40;67.80;;;;;;5006710;28;20469;-18
2022/11/23 00:24:46;;;;;;;0.57;0.57;;;16.30;67.80;;;;;;5009665;28;20092;-18
2022/11/23 00:27:11;;;;;;;0.63;0.55;;;16.40;67.80;;;;;;5005803;28;20137;-20
2022/11/23 00:29:37;;;;;;;0.80;0.50;;;16.40;67.90;;;;;;4991645;28;20054;-18
2022/11/23 00:32:03;;;;;;;0.60;0.60;;;16.40;67.80;;;;;;4993367;28;20062;-18
2022/11/23 00:34:28;;;;;;;0.60;0.60;;;16.30;67.80;;;;;;4996290;28;20577;-17
2022/11/23 00:36:54;;;;;;;0.77;0.77;;;16.30;67.80;;;;;;4996589;28;20038;-18
2022/11/23 00:39:19;;;;;;;0.55;0.55;;;16.40;67.70;;;;;;4994947;28;20519;-18
2022/11/23 00:41:54;;;;;;;0.88;0.73;;;16.30;67.70;;;;;;5035134;27;20405;-19
2022/11/23 00:44:19;;;;;;;0.95;0.73;;;16.30;67.80;;;;;;5003745;28;20038;-19
2022/11/23 00:46:45;;;;;;;0.60;0.60;;;16.40;67.70;;;;;;5004766;28;20046;-16
2022/11/23 00:49:10;;;;;;;0.63;0.63;;;16.40;67.70;;;;;;5004092;28;20065;-16
2022/11/23 00:51:36;;;;;;;0.70;0.70;;;16.30;67.60;;;;;;5004393;28;20053;-16
2022/11/23 00:54:04;;;;;;;0.52;0.52;;;16.30;67.70;;;;;;5004884;28;20039;-16
2022/11/23 00:56:29;;;;;;;0.80;0.70;;;16.30;67.70;;;;;;4999672;28;20117;-16
2022/11/23 00:58:56;;;;;;;0.80;0.70;;;16.30;67.60;;;;;;5003863;28;20148;-16
2022/11/23 01:01:26;;;;;;;0.70;0.70;;;16.30;67.70;;;;;;5003932;28;20423;-16
2022/11/23 01:03:53;;;;;;;0.47;0.47;;;16.30;67.60;;;;;;5003886;28;20046;-16
2022/11/23 01:06:23;;;;;;;0.70;0.70;;;16.30;67.60;;;;;;4998812;28;20314;-17
2022/11/23 01:08:49;;;;;;;0.70;0.50;;;16.30;67.70;;;;;;5004751;28;20050;-17
2022/11/23 01:11:15;;;;;;;0.75;0.75;;;16.30;67.70;;;;;;5004327;28;20125;-16
2022/11/23 01:13:41;;;;;;;0.70;0.70;;;16.30;67.80;;;;;;5003227;28;20464;-16
2022/11/23 01:16:08;;;;;;;0.70;0.70;;;16.30;67.70;;;;;;5003769;28;20046;-17
2022/11/23 01:18:34;;;;;;;0.70;0.55;;;16.30;67.50;;;;;;5003734;28;20077;-16
2022/11/23 01:21:00;;;;;;;0.98;0.60;;;16.30;67.80;;;;;;5003360;28;20069;-16
2022/11/23 01:23:28;;;;;;;0.40;0.40;;;16.20;67.80;;;;;;5003486;28;20042;-16
2022/11/23 01:25:53;;;;;;;0.63;0.60;;;16.30;67.80;;;;;;5004124;28;20046;-17
2022/11/23 01:28:19;;;;;;;0.60;0.60;;;16.30;67.80;;;;;;5003355;28;20088;-25
2022/11/23 01:30:44;;;;;;;0.60;0.60;;;16.30;67.60;;;;;;5003642;28;20050;-16
2022/11/23 01:33:10;;;;;;;0.57;0.50;;;16.30;67.60;;;;;;5003648;28;20049;-16
2022/11/23 01:35:36;;;;;;;0.60;0.60;;;16.30;67.60;;;;;;5002859;28;20045;-16
2022/11/23 01:38:01;;;;;;;0.90;0.50;;;16.30;67.80;;;;;;5004101;28;20068;-16
2022/11/23 01:40:27;;;;;;;1.15;0.55;;;16.30;67.90;;;;;;5001531;28;20105;-16
2022/11/23 01:42:57;;;;;;;0.75;0.60;;;16.20;68.00;;;;;;5004809;28;20038;-16
2022/11/23 01:45:39;;;;;;;0.68;0.57;;;16.20;68.00;;;;;;5002348;28;20045;-16
2022/11/23 01:48:10;;;;;;;0.60;0.60;;;16.20;67.90;;;;;;5000907;28;20409;-16
2022/11/23 01:50:36;;;;;;;0.50;0.50;;;16.20;67.90;;;;;;5002123;28;20073;-16
2022/11/23 01:53:01;;;;;;;0.70;0.50;;;16.20;67.80;;;;;;4991737;28;20503;-16
2022/11/23 01:55:27;;;;;;;0.50;0.50;;;16.20;67.90;;;;;;4989498;28;20051;-16
2022/11/23 01:57:52;;;;;;;0.57;0.57;;;16.30;67.80;;;;;;4990689;28;20480;-27
2022/11/23 02:00:18;;;;;;;0.70;0.55;;;16.30;67.70;;;;;;4991147;28;20046;-16
2022/11/23 02:02:48;;;;;;;0.65;0.50;;;16.20;68.60;;;;;;4990013;28;20073;-17
2022/11/23 02:05:14;;;;;;;0.90;0.52;;;16.20;67.80;;;;;;4985363;28;20039;-16
2022/11/23 02:07:39;;;;;;;0.60;0.60;;;16.20;68.00;;;;;;4994619;28;20075;-16
2022/11/23 02:10:05;;;;;;;0.40;0.40;;;16.20;67.90;;;;;;4985489;28;20397;-16
2022/11/23 02:12:31;;;;;;;0.60;0.50;;;16.20;68.00;;;;;;4987912;28;20431;-16
2022/11/23 02:14:57;;;;;;;0.68;0.32;;;16.20;68.00;;;;;;4987951;28;20054;-16
2022/11/23 02:17:22;;;;;;;0.70;0.70;;;16.20;68.00;;;;;;4989350;28;20428;-16
2022/11/23 02:20:03;;;;;;;0.40;0.40;;;16.30;68.10;;;;;;4984618;28;20055;-16
2022/11/23 02:22:35;;;;;;;0.45;0.45;;;16.20;68.10;;;;;;4978122;28;20499;-17
2022/11/23 02:25:00;;;;;;;0.47;0.43;;;16.20;68.20;;;;;;4989890;28;20054;-16
2022/11/23 02:27:26;;;;;;;0.50;0.50;;;16.20;68.20;;;;;;4985075;28;20039;-16
2022/11/23 02:29:51;;;;;;;0.32;0.32;;;16.20;68.20;;;;;;4990498;28;20372;-16
2022/11/23 02:32:22;;;;;;;0.52;0.50;;;16.20;68.00;;;;;;4985333;28;20570;-17
2022/11/23 02:34:48;;;;;;;0.50;0.50;;;16.20;68.10;;;;;;4998102;28;20045;-16
2022/11/23 02:37:13;;;;;;;0.60;0.47;;;16.20;68.20;;;;;;4989103;28;20042;-22
2022/11/23 02:39:45;;;;;;;0.60;0.43;;;16.10;68.30;;;;;;4988914;28;20030;-17
2022/11/23 02:42:10;;;;;;;0.47;0.40;;;16.20;68.30;;;;;;4981838;28;20042;-17
2022/11/23 02:45:18;;;;;;;0.40;0.40;;;16.20;69.10;;;;;;4987618;28;20586;-16
2022/11/23 02:47:43;;;;;;;0.45;0.30;;;16.10;68.40;;;;;;4983616;28;20038;-16
2022/11/23 02:50:09;;;;;;;0.68;0.68;;;16.20;68.30;;;;;;4989538;28;20061;-16
2022/11/23 02:52:34;;;;;;;0.30;0.30;;;16.20;68.20;;;;;;4988978;28;20035;-16
2022/11/23 02:55:00;;;;;;;0.50;0.50;;;16.30;68.20;;;;;;4989058;28;20133;-16
2022/11/23 02:57:25;;;;;;;0.50;0.50;;;16.20;68.30;;;;;;4988009;28;20043;-16
2022/11/23 02:59:51;;;;;;;0.65;0.65;;;16.20;68.20;;;;;;4989705;28;20415;-16
2022/11/23 03:02:17;;;;;;;0.60;0.40;;;16.20;68.10;;;;;;4989523;28;20105;-16
2022/11/23 03:04:42;;;;;;;0.40;0.40;;;16.20;68.20;;;;;;4986946;28;20526;-16
2022/11/23 03:07:08;;;;;;;0.73;0.40;;;16.20;68.40;;;;;;4989981;28;20018;-16
2022/11/23 03:09:33;;;;;;;0.57;0.30;;;16.20;68.40;;;;;;4988307;28;20044;-16
2022/11/23 03:11:59;;;;;;;0.30;0.30;;;16.20;68.60;;;;;;4988729;28;20129;-16
2022/11/23 03:14:24;;;;;;;0.50;0.40;;;16.10;68.50;;;;;;4987604;28;20101;-17
2022/11/23 03:16:50;;;;;;;0.77;0.52;;;16.20;68.40;;;;;;4988762;28;20047;-25
2022/11/23 03:19:16;;;;;;;0.60;0.40;;;16.20;68.50;;;;;;4988166;28;20094;-16
2022/11/23 03:21:41;;;;;;;0.40;0.40;;;16.20;68.40;;;;;;4988360;28;20070;-17
2022/11/23 03:24:07;;;;;;;0.40;0.40;;;16.10;68.40;;;;;;4988215;28;20471;-16
2022/11/23 03:26:32;;;;;;;0.35;0.35;;;16.20;68.40;;;;;;4988323;28;20053;-16
2022/11/23 03:28:58;;;;;;;0.30;0.30;;;16.20;68.20;;;;;;4988780;28;20046;-16
2022/11/23 03:31:24;;;;;;;0.50;0.40;;;16.20;68.20;;;;;;4987586;28;20177;-16
2022/11/23 03:33:49;;;;;;;0.50;0.50;;;16.20;69.10;;;;;;4988080;28;20535;-16
2022/11/23 03:36:15;;;;;;;0.40;0.40;;;16.30;68.20;;;;;;4988641;28;20416;-26
2022/11/23 03:38:40;;;;;;;0.40;0.40;;;16.20;68.20;;;;;;4988259;28;20047;-16
2022/11/23 03:41:06;;;;;;;0.57;0.52;;;16.20;68.20;;;;;;4988509;28;20419;-16
2022/11/23 03:43:31;;;;;;;0.60;0.40;;;16.20;68.40;;;;;;4987070;28;20042;-16
2022/11/23 03:45:57;;;;;;;0.70;0.40;;;16.20;68.50;;;;;;4986773;28;20069;-17
2022/11/23 03:48:22;;;;;;;0.28;0.28;;;16.10;68.40;;;;;;4988372;28;20507;-16
2022/11/23 03:50:48;;;;;;;0.30;0.30;;;16.20;68.50;;;;;;4987923;28;20031;-17
2022/11/23 03:53:14;;;;;;;0.57;0.57;;;16.10;68.50;;;;;;4987553;28;20042;-17
2022/11/23 03:55:39;;;;;;;0.20;0.20;;;16.10;68.40;;;;;;4987841;28;20147;-15
2022/11/23 03:58:05;;;;;;;0.43;0.40;;;16.10;68.50;;;;;;4987740;28;20511;-17
2022/11/23 04:00:32;;;;;;;0.20;0.20;;;16.10;69.20;;;;;;4986850;28;20050;-16
2022/11/23 04:02:58;;;;;;;0.40;0.40;;;16.20;68.50;;;;;;4987614;28;20038;-17
2022/11/23 04:05:23;;;;;;;0.38;0.30;;;16.20;68.40;;;;;;4988199;28;20424;-16
2022/11/23 04:07:49;;;;;;;0.50;0.40;;;16.10;68.50;;;;;;4986007;28;20050;-17
2022/11/23 04:10:15;;;;;;;0.25;0.20;;;16.20;68.50;;;;;;4988187;28;20056;-16
2022/11/23 04:12:41;;;;;;;0.40;0.40;;;16.10;68.60;;;;;;4987309;28;20085;-16
2022/11/23 04:15:07;;;;;;;0.38;0.38;;;16.10;68.60;;;;;;4988027;28;20070;-16
2022/11/23 04:17:32;;;;;;;0.28;0.28;;;16.20;68.30;;;;;;4987177;28;20049;-16
2022/11/23 04:19:58;;;;;;;0.32;0.30;;;16.10;68.40;;;;;;4987257;28;20042;-16
2022/11/23 04:22:24;;;;;;;0.35;0.30;;;16.10;68.40;;;;;;4988368;28;20050;-16
2022/11/23 04:24:49;;;;;;;0.30;0.30;;;16.10;68.40;;;;;;4987232;28;20470;-17
2022/11/23 04:27:15;;;;;;;0.20;0.20;;;16.10;68.60;;;;;;4987829;28;20039;-16
2022/11/23 04:29:40;;;;;;;0.30;0.30;;;16.10;68.60;;;;;;4987008;28;20077;-17
2022/11/23 04:32:06;;;;;;;0.40;0.15;;;16.10;68.80;;;;;;4986990;28;20606;-16
2022/11/23 04:34:31;;;;;;;0.35;0.35;;;16.10;68.70;;;;;;4987251;28;20047;-17
2022/11/23 04:36:57;;;;;;;0.40;0.40;;;16.10;69.40;;;;;;4987689;28;20051;-21
2022/11/23 04:39:22;;;;;;;0.32;0.20;;;16.10;68.60;;;;;;4987761;28;20130;-16
2022/11/23 04:41:48;;;;;;;0.30;0.30;;;16.10;68.70;;;;;;4986432;28;22488;-16
2022/11/23 04:44:13;;;;;;;0.35;0.30;;;16.10;69.50;;;;;;4987839;28;20034;-16
2022/11/23 04:46:39;;;;;;;0.32;0.30;;;16.10;68.60;;;;;;4986978;28;20491;-16
2022/11/23 04:49:04;;;;;;;0.30;0.30;;;16.10;68.70;;;;;;4987312;28;20107;-17
2022/11/23 04:51:30;;;;;;;0.40;0.30;;;16.00;68.70;;;;;;4987090;28;20042;-17
2022/11/23 04:53:56;;;;;;;0.40;0.40;;;16.10;68.70;;;;;;4987352;28;20042;-16
2022/11/23 04:56:21;;;;;;;0.20;0.20;;;16.10;68.60;;;;;;4987166;28;20518;-16
2022/11/23 04:58:47;;;;;;;0.20;0.20;;;16.10;68.80;;;;;;4987108;28;20030;-16
2022/11/23 05:01:12;;;;;;;0.30;0.30;;;16.10;68.70;;;;;;4986208;28;20205;-16
2022/11/23 05:03:38;;;;;;;0.38;0.28;;;16.10;69.60;;;;;;4986946;28;20527;-16
2022/11/23 05:06:04;;;;;;;0.30;0.30;;;16.10;68.60;;;;;;4987286;28;20170;-16
2022/11/23 05:08:29;;;;;;;0.20;0.20;;;16.10;68.50;;;;;;4987651;28;20054;-17
2022/11/23 05:10:55;;;;;;;0.35;0.20;;;16.10;68.70;;;;;;4987371;28;20069;-16
2022/11/23 05:13:21;;;;;;;0.30;0.30;;;16.00;68.70;;;;;;4982415;28;20515;-19
2022/11/23 05:15:47;;;;;;;0.20;0.20;;;16.10;68.70;;;;;;4987030;28;20093;-16
2022/11/23 05:18:12;;;;;;;0.40;0.30;;;16.10;68.80;;;;;;4986557;28;20046;-16
2022/11/23 05:20:38;;;;;;;0.20;0.20;;;16.10;69.60;;;;;;4986752;28;20042;-16
2022/11/23 05:23:04;;;;;;;0.20;0.20;;;16.10;68.70;;;;;;4986998;28;20046;-16
2022/11/23 05:25:30;;;;;;;0.52;0.30;;;16.10;68.70;;;;;;4987645;28;20031;-16
2022/11/23 05:27:55;;;;;;;0.20;0.20;;;16.10;68.70;;;;;;4989224;28;20080;-16
2022/11/23 05:30:21;;;;;;;0.20;0.20;;;16.10;68.80;;;;;;4990613;28;20395;-17
2022/11/23 05:32:46;;;;;;;0.20;0.20;;;16.10;68.70;;;;;;4990567;28;20057;-17
2022/11/23 05:35:13;;;;;;;0.40;0.20;;;16.10;69.40;;;;;;4991083;28;20037;-16
2022/11/23 05:37:38;;;;;;;0.20;0.20;;;16.10;68.70;;;;;;4990899;28;20069;-16
2022/11/23 05:40:04;;;;;;;0.20;0.20;;;16.00;68.60;;;;;;5005737;28;20042;-16
2022/11/23 05:42:30;;;;;;;0.20;0.20;;;16.00;68.70;;;;;;4991054;28;20093;-16
2022/11/23 05:44:56;;;;;;;0.25;0.20;;;16.10;68.60;;;;;;4989373;28;20227;-16
2022/11/23 05:47:21;;;;;;;0.17;0.17;;;16.10;68.70;;;;;;4991014;28;20484;-16
2022/11/23 05:49:48;;;;;;;0.38;0.38;;;16.10;68.80;;;;;;4984830;28;20034;-16
2022/11/23 05:52:13;;;;;;;0.20;0.20;;;16.00;68.80;;;;;;4989199;28;20057;-17
2022/11/23 05:54:39;;;;;;;0.20;0.20;;;16.10;68.70;;;;;;4988715;28;20511;-16
2022/11/23 05:57:05;;;;;;;0.20;0.20;;;16.00;69.60;;;;;;4991665;28;20518;-16
2022/11/23 05:59:30;;;;;;;0.20;0.20;;;16.10;68.80;;;;;;4987275;28;20053;-16
2022/11/23 06:01:56;;;;;;;0.10;0.10;;;16.10;68.50;;;;;;4986189;28;20137;-16
2022/11/23 06:04:22;;;;;;;0.20;0.20;;;16.10;68.80;;;;;;4988591;28;20046;-16
2022/11/23 06:06:47;;;;;;;0.30;0.30;;;16.10;68.70;;;;;;4989433;28;20046;-16
2022/11/23 06:09:13;;;;;;;0.20;0.20;;;16.10;68.70;;;;;;4990301;28;20444;-16
2022/11/23 06:11:38;;;;;;;0.20;0.20;;;16.00;68.70;;;;;;4990094;28;20045;-16
2022/11/23 06:14:04;;;;;;;0.20;0.20;;;16.00;68.80;;;;;;4991229;28;20034;-16
2022/11/23 06:16:29;;;;;;;0.20;0.20;;;16.10;68.60;;;;;;4989131;28;20459;-16
2022/11/23 06:18:55;;;;;;;0.13;0.13;;;16.20;68.50;;;;;;4989068;28;20050;-16
2022/11/23 06:21:20;;;;;;;0.20;0.17;;;16.20;68.40;;;;;;4989619;28;20086;-16
2022/11/23 06:23:46;;;;;;;0.20;0.20;;;16.10;68.60;;;;;;4988246;28;20042;-16
2022/11/23 06:26:12;;;;;;;0.10;0.10;;;16.10;68.70;;;;;;4985845;28;20049;-16
2022/11/23 06:28:37;;;;;;;0.20;0.20;;;16.10;68.90;;;;;;4986264;28;20109;-17
2022/11/23 06:31:04;;;;;;;0.20;0.20;;;16.10;68.80;;;;;;4662482;28;10000758;-16
2022/11/23 06:33:30;;;;;;;0.20;0.20;;;16.10;68.80;;;;;;4983887;28;20045;-16
2022/11/23 06:35:57;;;;;;;0.20;0.10;;;16.00;69.00;;;;;;4984131;28;20050;-16
2022/11/23 06:38:22;;;;;;;0.20;0.20;;;16.00;69.00;;;;;;4980516;28;20108;-16
2022/11/23 06:40:48;;;;;;;0.22;0.22;;;16.00;69.00;;;;;;4982996;28;20128;-17
2022/11/23 06:43:13;;;;;;;0.57;0.20;;;16.10;69.00;;;;;;4985030;28;20046;-16
2022/11/23 06:45:39;;;;;;;0.20;0.20;;;16.00;69.10;;;;;;4978513;28;20054;-17
2022/11/23 06:48:05;;;;;;;1.50;0.20;;;16.00;69.20;;;;;;4973561;28;20148;-16
2022/11/23 06:50:30;;;;;;;0.10;0.10;;;16.00;69.30;;;;;;4977769;28;20142;-16
2022/11/23 06:52:56;;;;;;;0.20;0.20;;;16.00;69.40;;;;;;4976872;28;20190;-16
2022/11/23 06:55:22;;;;;;;1.40;0.50;;;16.00;69.30;;;;;;4981569;28;20045;-16
2022/11/23 06:57:48;;;;;;;0.20;0.20;;;16.00;69.40;;;;;;4982372;28;20038;-16
2022/11/23 07:00:14;;;;;;;0.28;0.28;;;16.00;69.50;;;;;;4981734;28;20058;-16
2022/11/23 07:02:39;;;;;;;0.13;0.13;;;16.00;69.50;;;;;;4979940;28;20046;-16
2022/11/23 07:05:05;;;;;;;0.15;0.15;;;16.10;69.60;;;;;;4983896;28;20433;-16
2022/11/23 07:07:31;;;;;;;0.43;0.20;;;16.00;69.40;;;;;;4982766;28;20423;-16
2022/11/23 07:09:57;;;;;;;0.15;0.15;;;16.00;69.40;;;;;;4982866;28;22683;-16
2022/11/23 07:12:22;;;;;;;0.30;0.20;;;16.10;69.40;;;;;;4982137;28;20050;-16
2022/11/23 07:14:48;;;;;;;0.30;0.30;;;16.10;69.40;;;;;;4981197;28;20042;-16
2022/11/23 07:17:13;;;;;;;0.35;0.20;;;16.00;69.50;;;;;;4976104;28;20105;-30
2022/11/23 07:19:39;;;;;;;0.20;0.17;;;16.00;69.50;;;;;;4973230;28;20452;-16
2022/11/23 07:22:05;;;;;;;0.10;0.10;;;16.00;69.60;;;;;;5012083;28;20077;-16
2022/11/23 07:24:30;;;;;;;0.05;0.05;;;16.00;69.40;;;;;;4977058;28;20051;-16
2022/11/23 07:26:56;;;;;;;0.10;0.10;;;16.10;69.40;;;;;;4974825;28;20137;-16
2022/11/23 07:29:21;;;;;;;0.10;0.10;;;16.10;69.40;;;;;;4977251;28;20053;-16
2022/11/23 07:31:47;;;;;;;0.10;0.10;;;16.10;69.30;;;;;;4976673;28;20047;-16
2022/11/23 07:34:12;;;;;;;0.15;0.10;;;16.10;69.30;;;;;;4982558;28;20864;-17
2022/11/23 07:36:38;;;;;;;0.20;0.20;;;16.00;69.30;;;;;;4973048;28;20058;-16
2022/11/23 07:39:03;;;;;;;0.13;0.13;;;16.10;69.40;;;;;;4973673;28;20659;-16
2022/11/23 07:41:29;;;;;;;0.30;0.20;;;16.10;69.30;;;;;;4978739;28;20058;-17
2022/11/23 07:43:55;;;;;;;0.20;0.20;;;16.10;69.40;;;;;;4970502;28;20046;-16
2022/11/23 07:46:20;;;;;;;0.20;0.15;;;16.10;69.30;;;;;;4975175;28;20622;-25
2022/11/23 07:48:46;;;;;;;0.40;0.20;;;16.10;69.40;;;;;;4974360;28;20046;-17
2022/11/23 07:51:11;;;;;;;1.35;0.10;;;16.10;69.40;;;;;;4974762;28;20979;-16
2022/11/23 07:53:37;;;;;;;0.10;0.10;;;16.10;69.30;;;;;;4976317;28;20389;-16
2022/11/23 07:56:03;;;;;;;0.20;0.20;;;16.10;69.20;;;;;;4974394;28;20043;-16
2022/11/23 07:58:28;;;;;;;0.25;0.13;;;16.10;69.20;;;;;;4976098;28;20397;-16
2022/11/23 08:00:54;;;;;;;0.50;0.20;;;16.20;69.10;;;;;;4973888;28;20046;-16
2022/11/23 08:03:19;;;;;;;0.52;0.10;;;16.20;68.90;;;;;;4984011;28;20038;-16
2022/11/23 08:05:45;;;;;;;1.02;0.20;;;16.30;68.70;;;;;;4985085;28;20403;-16
2022/11/23 08:08:11;;;;;;;0.73;0.10;;;16.20;69.00;;;;;;4985786;28;20042;-16
2022/11/23 08:10:36;;;;;;;0.50;0.32;;;16.10;69.20;;;;;;4986660;28;20042;-16
2022/11/23 08:13:04;;;;;;;0.63;0.30;;;16.10;69.20;;;;;;4987384;28;20050;-16
2022/11/23 08:15:29;;;;;;;0.55;0.13;;;16.10;69.20;;;;;;4987183;28;20069;-16
2022/11/23 08:17:56;;;;;;;0.20;0.20;;;16.20;69.30;;;;;;4986058;28;20069;-18
2022/11/23 08:20:21;;;;;;;1.75;0.10;;;16.10;69.20;;;;;;4984643;28;20038;-16
2022/11/23 08:22:47;;;;;;;0.20;0.20;;;16.20;69.20;;;;;;4984186;28;20121;-22
2022/11/23 08:25:12;;;;;;;0.20;0.20;;;16.10;69.20;;;;;;4987136;28;20019;-16
2022/11/23 08:27:38;;;;;;;0.10;0.10;;;16.20;69.90;;;;;;4988139;28;20097;-18
2022/11/23 08:30:04;;;;;;;0.13;0.10;;;16.10;69.20;;;;;;4985909;28;20133;-16
2022/11/23 08:32:30;;;;;;;0.20;0.10;;;16.10;69.30;;;;;;4986221;28;20089;-16
2022/11/23 08:34:55;;;;;;;0.30;0.20;;;16.10;69.40;;;;;;4986098;28;20042;-16
2022/11/23 08:37:21;;;;;;;0.30;0.30;;;16.10;69.40;;;;;;4987851;28;20121;-16
2022/11/23 08:39:46;;;;;;;0.20;0.10;;;16.10;69.40;;;;;;4987094;28;20054;-16
2022/11/23 08:42:12;;;;;;;0.20;0.20;;;16.10;69.40;;;;;;4983844;28;20451;-16
2022/11/23 08:44:37;;;;;;;0.20;0.20;;;16.10;69.50;;;;;;4987828;28;20114;-17
2022/11/23 08:47:03;;;;;;;0.30;0.20;;;16.10;69.50;;;;;;4985461;28;20054;-16
2022/11/23 08:49:28;;;;;;;0.10;0.10;;;16.10;69.20;;;;;;4986932;28;20097;-16
2022/11/23 08:51:54;;;;;;;0.30;0.20;;;16.20;69.30;;;;;;4986303;28;20038;-16
2022/11/23 08:54:22;;;;;;;0.50;0.22;;;16.10;70.00;;;;;;4987072;28;20046;-17
2022/11/23 08:56:47;;;;;;;0.20;0.20;;;16.10;69.20;;;;;;4981635;28;20038;-16
2022/11/23 08:59:13;;;;;;;0.30;0.30;;;16.20;69.10;;;;;;4986255;28;20549;-16
2022/11/23 09:01:38;;;;;;;0.28;0.20;;;16.20;68.90;;;;;;4983954;28;20078;-16
2022/11/23 09:04:04;;;;;;;0.35;0.30;;;16.20;68.60;;;;;;4990350;28;20202;-16
2022/11/23 09:06:33;;;;;;;0.32;0.32;;;16.20;68.90;;;;;;4990723;28;20081;-16
2022/11/23 09:08:58;;;;;;;0.88;0.32;;;16.20;68.70;;;;;;4989845;28;20050;-16
2022/11/23 09:11:25;;;;;;;1.38;0.22;;;16.30;70.10;;;;;;4992745;28;20112;-16
2022/11/23 09:13:50;;;;;;;0.52;0.20;;;16.40;68.60;;;;;;4988438;28;20065;-16
2022/11/23 09:16:16;;;;;;;0.20;0.10;;;16.30;68.80;;;;;;4991582;28;20399;-16
2022/11/23 09:18:42;;;;;;;0.28;0.22;;;16.30;68.90;;;;;;4988810;28;20050;-16
2022/11/23 09:21:08;;;;;;;0.30;0.20;;;16.30;69.80;;;;;;4991051;28;20057;-16
2022/11/23 09:23:33;;;;;;;0.40;0.32;;;16.40;69.00;;;;;;4988818;28;20124;-16
2022/11/23 09:26:00;;;;;;;0.20;0.20;;;16.40;69.60;;;;;;4990501;28;20515;-16
2022/11/23 09:28:27;;;;;;;1.20;0.28;;;16.50;68.60;;;;;;4989739;28;20177;-16
2022/11/23 09:30:53;;;;;;;0.20;0.20;;;16.50;69.40;;;;;;4988550;28;20050;-16
2022/11/23 09:33:19;;;;;;;0.13;0.10;;;16.50;68.50;;;;;;4989366;28;20212;-16
2022/11/23 09:35:45;;;;;;;1.55;0.20;;;16.50;68.60;;;;;;4989589;28;20133;-16
2022/11/23 09:38:10;;;;;;;0.77;0.22;;;16.50;68.60;;;;;;4992869;28;20038;-16
2022/11/23 09:40:37;;;;;;;0.65;0.35;;;16.50;68.50;;;;;;4989986;28;20057;-16
2022/11/23 09:43:06;;;;;;;0.73;0.20;;;16.50;68.60;;;;;;4988329;28;20046;-17
2022/11/23 09:45:52;;;;;;;0.20;0.20;;;16.50;68.50;;;;;;4985030;28;21949;-17
2022/11/23 09:48:42;;;;;;;0.22;0.10;;;16.60;68.40;;;;;;4985026;28;20076;-16
2022/11/23 09:51:18;;;;;;;0.47;0.30;;;16.60;68.40;;;;;;4986241;28;20047;-17
2022/11/23 09:53:59;;;;;;;0.22;0.17;;;16.60;68.40;;;;;;4997360;28;20137;-16
2022/11/23 09:56:31;;;;;;;0.65;0.20;;;16.60;68.30;;;;;;5009917;28;20105;-16
2022/11/23 09:59:01;;;;;;;0.25;0.20;;;16.60;68.30;;;;;;4995910;28;20062;-16
2022/11/23 10:01:27;;;;;;;0.25;0.20;;;16.60;68.40;;;;;;4984393;28;20047;-16
2022/11/23 10:03:53;;;;;;;1.27;0.30;;;16.60;68.40;;;;;;4987249;28;20387;-16
2022/11/23 10:06:26;;;;;;;0.32;0.30;;;16.60;68.40;;;;;;4987900;28;20039;-16
2022/11/23 10:09:06;;;;;;;0.60;0.30;;;16.70;68.50;;;;;;4988154;28;20035;-19
2022/11/23 10:12:00;;;;;;;0.30;0.10;;;16.70;68.30;;;;;;4986550;28;20742;-16
2022/11/23 10:14:34;;;;;;;0.20;0.13;;;16.70;68.40;;;;;;4986289;28;20537;-17
2022/11/23 10:17:33;;;;;;;0.40;0.13;;;16.70;68.40;;;;;;4982708;28;20054;-17
2022/11/23 10:20:20;;;;;;;0.22;0.10;;;16.70;68.40;;;;;;4985233;28;20038;-16
2022/11/23 10:23:03;;;;;;;0.32;0.32;;;16.70;68.30;;;;;;4981331;28;20046;-17
2022/11/23 10:25:33;;;;;;;0.45;0.20;;;16.70;68.40;;;;;;4985670;28;20520;-16
2022/11/23 10:28:00;;;;;;;0.30;0.20;;;16.70;68.20;;;;;;4984986;28;20047;-17
2022/11/23 10:30:25;;;;;;;0.30;0.22;;;16.80;69.10;;;;;;4984855;28;20081;-17
2022/11/23 10:33:09;;;;;;;0.13;0.13;;;16.80;68.30;;;;;;4986695;28;20066;-17
2022/11/23 10:35:37;;;;;;;0.50;0.20;;;16.80;68.00;;;;;;4997596;28;20545;-16
2022/11/23 10:38:21;;;;;;;0.28;0.20;;;16.90;67.90;;;;;;4985518;28;20047;-16
2022/11/23 10:41:04;;;;;;;0.47;0.10;;;16.90;67.70;;;;;;4984740;28;20049;-16
2022/11/23 10:44:02;;;;;;;0.30;0.20;;;16.90;67.80;;;;;;4988954;28;20073;-16
2022/11/23 10:46:29;;;;;;;0.30;0.20;;;16.80;67.80;;;;;;4988079;28;20308;-16
2022/11/23 10:48:55;;;;;;;0.30;0.15;;;16.90;67.70;;;;;;4981572;28;20046;-16
2022/11/23 10:51:31;;;;;;;0.20;0.20;;;16.90;67.60;;;;;;5009606;28;20530;-17
2022/11/23 10:54:01;;;;;;;0.45;0.10;;;16.90;67.60;;;;;;5009045;28;20047;-16
2022/11/23 10:56:27;;;;;;;0.60;0.30;;;17.00;67.50;;;;;;4987127;28;20045;-16
2022/11/23 10:58:53;;;;;;;0.95;0.28;;;17.00;67.50;;;;;;5009489;28;20046;-16
2022/11/23 11:01:23;;;;;;;0.20;0.20;;;17.00;67.40;;;;;;4982386;28;20389;-16
2022/11/23 11:03:53;;;;;;;0.55;0.20;;;17.00;67.40;;;;;;4986009;28;20045;-16
2022/11/23 11:06:29;;;;;;;0.20;0.20;;;17.00;67.30;;;;;;4983760;28;20038;-16
2022/11/23 11:09:00;;;;;;;1.02;0.40;;;17.00;67.30;;;;;;4978470;28;20173;-16
2022/11/23 11:11:33;;;;;;;0.70;0.50;;;17.00;67.30;;;;;;4981049;28;20384;-17
2022/11/23 11:14:15;;;;;;;0.80;0.32;;;17.00;67.40;;;;;;4986564;28;20381;-16
2022/11/23 11:16:48;;;;;;;0.25;0.20;;;17.00;67.30;;;;;;4989165;28;20047;-16
2022/11/23 11:19:26;;;;;;;1.45;0.50;;;17.00;67.40;;;;;;4988489;28;20074;-17
2022/11/23 11:21:51;;;;;;;0.50;0.25;;;17.00;67.60;;;;;;4983859;28;20054;-18
2022/11/23 11:24:19;;;;;;;0.50;0.40;;;17.00;67.50;;;;;;4988238;28;20046;-16
2022/11/23 11:27:24;;;;;;;0.40;0.20;;;17.00;67.40;;;;;;4989010;28;20046;-17
2022/11/23 11:29:50;;;;;;;0.20;0.20;;;17.00;67.40;;;;;;4987505;28;20061;-16
2022/11/23 11:32:46;;;;;;;0.50;0.40;;;17.10;67.50;;;;;;4988009;28;20584;-18
2022/11/23 11:35:12;;;;;;;0.57;0.22;;;17.00;67.50;;;;;;4988419;28;20087;-17
2022/11/23 11:37:45;;;;;;;0.40;0.32;;;17.00;67.30;;;;;;4988191;28;20571;-16
2022/11/23 11:40:19;;;;;;;0.85;0.30;;;17.10;67.30;;;;;;4987725;28;20086;-16
2022/11/23 11:43:01;;;;;;;0.85;0.20;;;17.10;67.20;;;;;;4987819;28;20057;-17
2022/11/23 11:45:28;;;;;;;1.40;0.32;;;17.10;67.10;;;;;;5011900;28;20034;-17
2022/11/23 11:48:01;;;;;;;0.43;0.40;;;17.10;67.00;;;;;;4982780;28;20067;-17
2022/11/23 11:50:46;;;;;;;0.40;0.30;;;17.10;67.00;;;;;;4983080;28;20065;-16
2022/11/23 11:53:22;;;;;;;0.47;0.25;;;17.10;67.00;;;;;;4986835;28;20061;-17
2022/11/23 11:56:21;;;;;;;0.75;0.20;;;17.10;67.10;;;;;;4986996;28;20045;-17
2022/11/23 11:59:01;;;;;;;0.43;0.20;;;17.20;67.00;;;;;;4985430;28;20084;-16
2022/11/23 12:01:43;;;;;;;0.50;0.20;;;17.20;66.90;;;;;;4965694;28;20122;-17
2022/11/23 12:04:14;;;;;;;0.38;0.20;;;17.20;66.80;;;;;;5006882;28;20053;-17
2022/11/23 12:06:47;;;;;;;0.55;0.20;;;17.20;66.90;;;;;;4986168;28;20027;-19
2022/11/23 12:09:15;;;;;;;0.50;0.40;;;17.20;67.00;;;;;;4982634;28;20041;-17
2022/11/23 12:11:41;;;;;;;3.83;0.30;;;17.20;67.00;;;;;;4963634;28;20125;-16
2022/11/23 12:14:12;;;;;;;0.98;0.28;;;17.20;67.00;;;;;;4985471;28;20070;-17
2022/11/23 12:17:01;;;;;;;1.02;0.30;;;17.20;67.10;;;;;;4982613;28;20035;-16
2022/11/23 12:19:46;;;;;;;1.52;0.20;;;17.20;67.00;;;;;;4986345;28;20057;-16
2022/11/23 12:22:42;;;;;;;0.38;0.22;;;17.20;67.00;;;;;;4985789;28;20133;-16
2022/11/23 12:25:23;;;;;;;0.38;0.28;;;17.20;66.90;;;;;;4987221;28;20192;-17
2022/11/23 12:28:07;;;;;;;0.55;0.20;;;17.20;66.90;;;;;;4985690;28;20034;-16
2022/11/23 12:31:06;;;;;;;0.52;0.50;;;17.20;67.00;;;;;;4986661;28;20042;-16
2022/11/23 12:33:53;;;;;;;0.20;0.15;;;17.20;66.90;;;;;;4985501;28;20046;-16
2022/11/23 12:36:29;;;;;;;0.63;0.40;;;17.30;66.70;;;;;;4986799;28;20046;-16
2022/11/23 12:39:23;;;;;;;0.22;0.20;;;17.30;66.70;;;;;;4986053;28;20039;-17
2022/11/23 12:42:07;;;;;;;0.80;0.40;;;17.30;66.70;;;;;;4985101;28;20054;-16
2022/11/23 12:45:10;;;;;;;1.23;0.40;;;17.20;66.80;;;;;;4986122;28;21215;-16
2022/11/23 12:48:04;;;;;;;0.50;0.50;;;17.30;66.70;;;;;;4979443;28;20625;-19
2022/11/23 12:50:34;;;;;;;0.63;0.63;;;17.30;66.70;;;;;;4967390;28;20039;-19
2022/11/23 12:53:22;;;;;;;0.70;0.52;;;17.30;66.70;;;;;;4976709;28;20042;-18